Time;durP1;ratioP1;P1;durP2;ratioP2;P2;SDS_P1;SDS_P2;PMS_P1;PMS_P2;Temp;Humidity;BMP_temperature;BMP_pressure;BME280_temperature;BME280_humidity;BME280_pressure;Samples;Min_cycle;Max_cycle;Signal;HPM_P1;HPM_P2
2023/04/13 07:11:10;;;;;;;1.52;0.60;;;19.60;49.80;;;;;;6430939;27;20026;-46
2023/04/13 07:14:14;;;;;;;0.73;0.50;;;19.40;50.70;;;;;;6425634;27;20046;-47
2023/04/13 07:17:17;;;;;;;1.00;0.65;;;19.50;49.90;;;;;;6424684;27;20043;-45
2023/04/13 07:20:18;;;;;;;1.50;0.73;;;19.50;48.50;;;;;;6425637;27;20047;-45
2023/04/13 07:23:22;;;;;;;0.55;0.50;;;19.70;48.50;;;;;;6422667;27;20095;-43
2023/04/13 07:26:26;;;;;;;2.80;0.80;;;19.90;47.70;;;;;;6426777;27;20051;-44
2023/04/13 07:29:28;;;;;;;1.40;0.35;;;19.90;47.40;;;;;;6423747;27;20047;-47
2023/04/13 07:32:36;;;;;;;1.88;0.40;;;20.50;47.10;;;;;;6426592;27;20060;-47
2023/04/13 07:35:38;;;;;;;0.75;0.25;;;20.00;46.70;;;;;;6429060;27;20051;-54
2023/04/13 07:38:41;;;;;;;0.80;0.40;;;20.20;46.20;;;;;;6419869;27;20125;-45
2023/04/13 07:41:45;;;;;;;0.50;0.30;;;20.60;46.60;;;;;;6420368;27;20117;-45
2023/04/13 07:44:51;;;;;;;0.30;0.30;;;20.80;46.10;;;;;;6419734;27;20055;-44
2023/04/13 07:47:54;;;;;;;0.40;0.30;;;20.40;46.10;;;;;;6419849;27;20401;-46
2023/04/13 07:50:55;;;;;;;;;;;20.50;46.00;;;;;;6421105;27;20513;-45
2023/04/13 07:53:58;;;;;;;0.47;0.22;;;21.20;46.70;;;;;;6420926;27;20361;-46
2023/04/13 07:57:04;;;;;;;0.63;0.40;;;20.70;46.50;;;;;;6420700;27;20068;-44
2023/04/13 08:00:13;;;;;;;0.52;0.30;;;20.60;45.50;;;;;;6420195;27;20440;-43
2023/04/13 08:03:18;;;;;;;0.80;0.30;;;20.70;45.20;;;;;;6420384;27;20050;-48
2023/04/13 08:06:26;;;;;;;0.90;0.30;;;20.60;45.00;;;;;;6419100;27;20122;-45
2023/04/13 08:09:30;;;;;;;0.40;0.30;;;20.60;44.40;;;;;;6420275;27;20051;-46
2023/04/13 08:12:33;;;;;;;0.73;0.50;;;20.70;44.40;;;;;;6421584;27;20106;-44
2023/04/13 08:15:35;;;;;;;0.40;0.20;;;20.80;44.10;;;;;;6418328;27;20551;-45
2023/04/13 08:18:36;;;;;;;;;;;21.10;44.50;;;;;;6405211;27;20139;-44
2023/04/13 08:21:41;;;;;;;0.30;0.30;;;20.90;44.70;;;;;;6385277;27;20408;-43
2023/04/13 08:24:43;;;;;;;0.45;0.20;;;21.00;44.60;;;;;;6403781;27;20035;-44
2023/04/13 08:27:45;;;;;;;0.80;0.38;;;21.00;44.30;;;;;;6403764;27;20075;-44
2023/04/13 08:30:48;;;;;;;0.60;0.20;;;21.10;44.40;;;;;;6402246;27;20049;-47
2023/04/13 08:33:49;;;;;;;;;;;20.90;43.80;;;;;;6408814;27;20080;-49
2023/04/13 08:36:51;;;;;;;0.40;0.20;;;21.70;44.80;;;;;;6402158;27;19958;-45
2023/04/13 08:39:58;;;;;;;0.50;0.30;;;21.30;44.30;;;;;;6405066;27;20043;-48
2023/04/13 08:43:00;;;;;;;0.30;0.20;;;21.20;43.80;;;;;;6402648;27;20047;-47
2023/04/13 08:46:05;;;;;;;0.57;0.20;;;21.50;43.70;;;;;;6401796;27;20435;-48
2023/04/13 08:49:08;;;;;;;0.82;0.38;;;21.30;43.50;;;;;;6402512;27;20115;-45
2023/04/13 08:52:29;;;;;;;0.53;0.30;;;21.00;43.40;;;;;;6389818;27;20051;-44
2023/04/13 08:55:33;;;;;;;0.30;0.20;;;21.30;43.40;;;;;;6408549;27;20043;-48
2023/04/13 08:58:41;;;;;;;0.50;0.20;;;20.90;43.00;;;;;;6402638;27;20079;-44
2023/04/13 09:01:45;;;;;;;1.00;0.43;;;21.20;43.00;;;;;;6400448;27;20046;-45
2023/04/13 09:04:49;;;;;;;1.17;0.40;;;21.30;42.90;;;;;;6400896;27;20125;-40
2023/04/13 09:07:56;;;;;;;1.05;0.40;;;21.10;42.80;;;;;;6383114;27;20058;-44
2023/04/13 09:10:58;;;;;;;0.65;0.30;;;21.20;42.80;;;;;;6400915;27;20493;-43
2023/04/13 09:14:01;;;;;;;;;;;21.00;42.80;;;;;;6401630;27;20043;-41
2023/04/13 09:17:03;;;;;;;0.50;0.50;;;21.20;43.10;;;;;;6401057;27;19919;-45
2023/04/13 09:20:15;;;;;;;0.73;0.55;;;21.50;43.20;;;;;;6401048;27;20122;-45
2023/04/13 09:23:17;;;;;;;1.02;0.43;;;21.50;42.70;;;;;;6401399;27;20066;-43
2023/04/13 09:26:19;;;;;;;0.60;0.38;;;21.10;42.60;;;;;;6401500;27;20516;-44
2023/04/13 09:29:22;;;;;;;0.50;0.30;;;21.20;42.40;;;;;;6399912;27;20068;-45
2023/04/13 09:32:25;;;;;;;0.55;0.45;;;21.40;42.50;;;;;;6401589;27;20077;-44
2023/04/13 09:35:29;;;;;;;0.73;0.20;;;21.20;42.20;;;;;;6400206;27;20122;-43
2023/04/13 09:38:31;;;;;;;0.22;0.22;;;21.40;42.20;;;;;;6381834;27;20043;-44
2023/04/13 09:41:34;;;;;;;0.60;0.30;;;21.10;42.10;;;;;;6402986;27;20038;-48
2023/04/13 09:44:37;;;;;;;0.68;0.30;;;21.00;41.70;;;;;;6407983;27;20489;-44
2023/04/13 09:47:39;;;;;;;0.30;0.28;;;21.20;41.80;;;;;;6399507;27;20039;-43
2023/04/13 09:50:41;;;;;;;0.50;0.30;;;21.00;41.80;;;;;;6400333;27;20043;-47
2023/04/13 09:53:46;;;;;;;0.60;0.30;;;21.20;41.80;;;;;;6400312;27;20035;-45
2023/04/13 09:56:51;;;;;;;0.73;0.38;;;21.40;42.10;;;;;;6382412;27;20088;-43
2023/04/13 09:59:56;;;;;;;0.45;0.30;;;21.10;41.50;;;;;;6400268;27;20074;-45
2023/04/13 10:03:00;;;;;;;0.30;0.30;;;21.10;41.60;;;;;;6400270;27;20095;-46
2023/04/13 10:06:06;;;;;;;0.28;0.20;;;21.10;41.50;;;;;;6400178;27;20046;-47
2023/04/13 10:09:09;;;;;;;0.52;0.20;;;21.50;41.70;;;;;;6399489;27;20459;-43
2023/04/13 10:12:12;;;;;;;0.38;0.20;;;21.30;41.80;;;;;;6399793;27;20148;-44
2023/04/13 10:15:30;;;;;;;0.45;0.20;;;21.10;41.50;;;;;;6403102;27;20452;-45
2023/04/13 10:18:42;;;;;;;0.40;0.30;;;21.10;41.40;;;;;;6407257;27;20099;-44
2023/04/13 10:21:49;;;;;;;0.25;0.17;;;21.10;41.20;;;;;;6412390;27;20508;-43
2023/04/13 10:24:51;;;;;;;0.20;0.20;;;21.40;41.50;;;;;;6385775;27;20038;-45
2023/04/13 10:27:57;;;;;;;0.55;0.30;;;21.00;41.30;;;;;;6403685;27;20059;-44
2023/04/13 10:31:01;;;;;;;0.10;0.10;;;21.10;40.50;;;;;;6404615;27;20043;-44
2023/04/13 10:34:04;;;;;;;0.50;0.20;;;21.20;41.20;;;;;;6403999;27;20095;-44
2023/04/13 10:37:18;;;;;;;0.32;0.20;;;21.20;40.90;;;;;;6385176;27;20046;-44
2023/04/13 10:40:22;;;;;;;0.60;0.30;;;21.20;41.00;;;;;;6403982;27;20393;-43
2023/04/13 10:43:26;;;;;;;0.32;0.30;;;21.40;41.10;;;;;;6403684;27;20056;-44
2023/04/13 10:46:29;;;;;;;0.63;0.30;;;21.20;40.90;;;;;;6403903;27;20039;-44
2023/04/13 10:49:31;;;;;;;0.20;0.20;;;21.10;40.90;;;;;;6386504;27;20039;-44
2023/04/13 10:52:33;;;;;;;0.40;0.30;;;21.10;40.90;;;;;;6368822;27;20039;-44
2023/04/13 10:55:34;;;;;;;;;;;21.10;41.00;;;;;;6403388;27;20489;-44
2023/04/13 10:58:36;;;;;;;0.50;0.20;;;21.80;41.80;;;;;;6384241;27;19923;-44
2023/04/13 11:01:39;;;;;;;0.15;0.10;;;21.00;41.40;;;;;;6403670;27;20385;-45
2023/04/13 11:04:46;;;;;;;0.30;0.20;;;21.10;41.80;;;;;;6403173;27;20081;-44
2023/04/13 11:07:49;;;;;;;0.52;0.20;;;21.10;41.90;;;;;;6368335;27;20081;-44
2023/04/13 11:10:56;;;;;;;0.20;0.20;;;21.20;42.40;;;;;;6385897;27;20034;-43
2023/04/13 11:13:58;;;;;;;0.22;0.20;;;21.10;42.80;;;;;;6402737;27;20071;-44
2023/04/13 11:17:06;;;;;;;0.30;0.30;;;21.20;43.10;;;;;;6402920;27;20065;-43
2023/04/13 11:20:10;;;;;;;0.30;0.20;;;21.10;43.10;;;;;;6385618;27;20132;-47
2023/04/13 11:23:14;;;;;;;0.20;0.20;;;21.20;43.40;;;;;;6404202;27;20475;-43
2023/04/13 11:26:16;;;;;;;0.32;0.22;;;21.50;43.60;;;;;;6388778;27;20626;-45
2023/04/13 11:29:18;;;;;;;0.30;0.30;;;21.10;43.70;;;;;;6404985;27;20074;-44
2023/04/13 11:32:20;;;;;;;0.10;0.10;;;21.30;43.50;;;;;;6404199;27;20043;-45
2023/04/13 11:35:22;;;;;;;0.65;0.17;;;21.30;43.90;;;;;;6404679;27;20076;-44
2023/04/13 11:38:24;;;;;;;0.20;0.20;;;21.10;43.60;;;;;;6368823;27;20068;-45
2023/04/13 11:41:27;;;;;;;0.20;0.10;;;21.10;44.10;;;;;;6386218;27;20043;-44
2023/04/13 11:44:29;;;;;;;0.10;0.10;;;21.20;44.20;;;;;;6406129;27;20046;-44
2023/04/13 11:47:31;;;;;;;;;;;21.20;44.80;;;;;;6407473;27;20043;-44
2023/04/13 11:50:33;;;;;;;0.35;0.20;;;21.20;45.00;;;;;;6411650;27;19926;-46
2023/04/13 11:53:37;;;;;;;0.30;0.30;;;21.20;45.20;;;;;;6413411;27;20043;-46
2023/04/13 11:56:39;;;;;;;0.22;0.20;;;21.20;45.70;;;;;;6415076;27;20046;-45
2023/04/13 11:59:41;;;;;;;0.20;0.20;;;21.10;45.80;;;;;;6413991;27;20039;-46
2023/04/13 12:02:44;;;;;;;0.30;0.20;;;21.50;46.50;;;;;;6422445;27;20072;-44
2023/04/13 12:06:03;;;;;;;0.20;0.20;;;21.30;46.40;;;;;;6424251;27;20068;-45
2023/04/13 12:09:08;;;;;;;1.00;0.45;;;21.60;46.30;;;;;;6420534;27;20039;-43
2023/04/13 12:12:16;;;;;;;0.22;0.10;;;21.60;46.80;;;;;;6419015;27;20046;-49
2023/04/13 12:15:24;;;;;;;0.30;0.30;;;21.20;47.00;;;;;;6415355;27;20043;-47
2023/04/13 12:18:46;;;;;;;1.20;0.20;;;21.20;47.10;;;;;;6378538;27;20042;-47
2023/04/13 12:21:54;;;;;;;0.20;0.20;;;21.60;47.40;;;;;;6409193;27;20062;-47
2023/04/13 12:24:57;;;;;;;0.20;0.10;;;21.70;47.80;;;;;;6424151;27;20054;-48
2023/04/13 12:28:03;;;;;;;0.30;0.22;;;21.40;47.60;;;;;;6419269;27;20058;-48
2023/04/13 12:31:10;;;;;;;0.20;0.20;;;21.30;47.50;;;;;;6420142;27;20039;-50
2023/04/13 12:34:12;;;;;;;0.90;0.20;;;21.40;48.20;;;;;;6397107;27;20168;-44
2023/04/13 12:37:14;;;;;;;0.20;0.20;;;21.20;47.40;;;;;;6409163;27;20130;-48
2023/04/13 12:40:17;;;;;;;0.47;0.10;;;21.30;47.40;;;;;;6405794;27;20077;-45
2023/04/13 12:43:18;;;;;;;0.17;0.17;;;21.20;47.20;;;;;;6367531;27;20045;-51
2023/04/13 12:46:20;;;;;;;;;;;21.70;47.60;;;;;;6403218;27;20491;-46
2023/04/13 12:56:18;;;;;;;0.93;0.33;;;21.50;42.50;;;;;;6453663;27;20089;-48
2023/04/13 12:59:21;;;;;;;0.30;0.30;;;21.50;42.50;;;;;;6459698;27;20504;-48
2023/04/13 13:02:24;;;;;;;0.40;0.20;;;21.50;42.50;;;;;;6461048;27;20071;-47
2023/04/13 13:05:26;;;;;;;0.17;0.10;;;21.60;42.60;;;;;;6455156;27;20042;-44
2023/04/13 13:08:27;;;;;;;1.73;0.20;;;21.60;42.50;;;;;;6455220;27;20138;-46
2023/04/13 13:11:36;;;;;;;0.93;0.28;;;21.60;42.50;;;;;;6450556;27;20385;-45
2023/04/13 13:14:37;;;;;;;0.95;0.17;;;21.60;42.50;;;;;;6424765;27;20042;-46
2023/04/13 13:17:39;;;;;;;;;;;21.60;42.30;;;;;;6424140;27;20035;-48
2023/04/13 13:20:44;;;;;;;0.25;0.17;;;21.70;42.30;;;;;;6423039;27;19923;-48
2023/04/13 13:23:46;;;;;;;0.28;0.20;;;21.60;42.20;;;;;;6424655;27;20043;-46
2023/04/13 13:26:48;;;;;;;0.30;0.20;;;21.60;42.10;;;;;;6419983;27;20038;-45
2023/04/13 13:30:10;;;;;;;1.48;0.22;;;21.50;42.00;;;;;;6404048;27;20038;-46
2023/04/13 13:40:28;;;;;;;0.30;0.20;;;22.00;42.70;;;;;;6450210;27;20047;-46
2023/04/13 13:43:30;;;;;;;0.40;0.30;;;21.60;45.90;;;;;;6430871;27;20086;-47
2023/04/13 13:46:31;;;;;;;0.30;0.20;;;21.50;46.40;;;;;;6447894;27;20042;-48
2023/04/13 13:49:37;;;;;;;0.20;0.20;;;21.70;46.60;;;;;;6447275;27;20405;-47
2023/04/13 13:52:48;;;;;;;0.15;0.15;;;21.80;47.20;;;;;;6445641;27;20049;-51
2023/04/13 13:56:07;;;;;;;0.73;0.28;;;21.50;47.10;;;;;;6430040;27;20042;-46
2023/04/13 13:59:09;;;;;;;0.43;0.30;;;21.60;46.70;;;;;;6446326;27;20068;-47
2023/04/13 14:02:11;;;;;;;0.20;0.20;;;21.90;47.20;;;;;;6447199;27;20082;-48
2023/04/13 14:05:12;;;;;;;;;;;21.60;47.90;;;;;;6449061;27;20045;-47
2023/04/13 14:08:14;;;;;;;0.30;0.20;;;22.10;70.80;;;;;;6455939;27;19975;-48
2023/04/13 14:12:00;;;;;;;0.40;0.28;;;22.00;72.80;;;;;;6473398;27;20654;-44
2023/04/13 14:18:12;;;;;;;1.55;0.30;;;22.00;67.90;;;;;;6483932;27;20112;-44
2023/04/13 14:21:14;;;;;;;0.70;0.28;;;21.90;48.20;;;;;;6452686;27;20134;-45
2023/04/13 14:24:16;;;;;;;0.80;0.30;;;22.00;70.10;;;;;;6450957;27;20038;-44
2023/04/13 14:27:17;;;;;;;;;;;22.10;60.00;;;;;;6396705;27;20041;-43
2023/04/13 14:31:56;;;;;;;0.40;0.20;;;22.00;55.40;;;;;;6477854;27;20444;-42
2023/04/13 14:34:59;;;;;;;2.60;0.32;;;22.00;48.40;;;;;;6451253;27;20045;-47
2023/04/13 14:38:00;;;;;;;0.68;0.47;;;21.80;47.80;;;;;;6431930;27;20091;-46
2023/04/13 14:41:02;;;;;;;0.45;0.20;;;22.20;47.80;;;;;;6449822;27;20046;-45
2023/04/13 14:44:03;;;;;;;;;;;22.30;48.10;;;;;;6448586;27;20042;-44
2023/04/13 14:47:08;;;;;;;0.30;0.30;;;22.20;48.20;;;;;;6448277;27;20346;-44
2023/04/13 14:50:11;;;;;;;0.30;0.30;;;21.90;47.80;;;;;;6447505;27;20077;-46
2023/04/13 14:53:13;;;;;;;0.57;0.30;;;21.70;47.10;;;;;;6448328;27;20095;-45
2023/04/13 14:56:16;;;;;;;;;;;21.90;47.90;;;;;;6449440;27;20034;-46
2023/04/13 14:59:18;;;;;;;0.22;0.20;;;21.70;47.90;;;;;;6447987;27;19919;-45
2023/04/13 15:04:09;;;;;;;0.50;0.20;;;22.20;64.00;;;;;;6447450;27;20308;-49
2023/04/13 15:07:11;;;;;;;2.40;0.30;;;21.80;48.00;;;;;;6425540;27;20039;-49
2023/04/13 15:10:16;;;;;;;0.30;0.20;;;21.70;48.00;;;;;;6419100;27;20043;-49
2023/04/13 15:13:17;;;;;;;0.20;0.20;;;21.90;47.80;;;;;;6404641;27;20122;-47
2023/04/13 15:16:19;;;;;;;;;;;21.80;48.00;;;;;;6400730;28;20042;-45
2023/04/13 15:19:21;;;;;;;;;;;21.90;48.20;;;;;;6400745;27;19913;-45
2023/04/13 15:22:23;;;;;;;0.20;0.20;;;21.90;66.50;;;;;;6390691;28;19924;-44
2023/04/13 15:25:25;;;;;;;0.20;0.20;;;21.90;47.90;;;;;;6389884;27;20120;-46
2023/04/13 15:28:27;;;;;;;3.40;0.50;;;22.40;48.00;;;;;;6362037;28;20040;-46
2023/04/13 15:31:28;;;;;;;0.60;0.17;;;22.00;47.90;;;;;;6388966;28;20395;-48
2023/04/13 15:34:31;;;;;;;0.50;0.40;;;22.50;48.10;;;;;;6386642;28;20039;-41
2023/04/13 15:37:32;;;;;;;0.47;0.30;;;21.90;47.30;;;;;;6381255;27;20069;-42
2023/04/13 15:40:35;;;;;;;;;;;22.10;47.80;;;;;;6385522;28;20043;-47
2023/04/13 15:43:36;;;;;;;0.10;0.10;;;22.00;48.30;;;;;;6389290;28;19920;-44
2023/04/13 15:46:38;;;;;;;1.08;0.22;;;22.00;47.60;;;;;;6396407;28;20103;-45
2023/04/13 15:49:40;;;;;;;0.65;0.30;;;22.30;47.70;;;;;;6385300;28;20039;-44
2023/04/13 15:52:42;;;;;;;0.20;0.20;;;;;;;;;;6396345;28;20222;-49
2023/04/13 15:55:44;;;;;;;0.32;0.20;;;22.40;68.60;;;;;;6392416;28;20054;-47
2023/04/13 15:58:46;;;;;;;0.22;0.20;;;22.10;48.00;;;;;;6389742;28;20044;-46
2023/04/13 16:01:48;;;;;;;0.10;0.10;;;22.20;47.10;;;;;;6381498;28;20044;-45
2023/04/13 16:04:52;;;;;;;0.20;0.20;;;22.30;46.80;;;;;;6373443;28;20328;-45
2023/04/13 16:07:56;;;;;;;1.75;0.20;;;22.60;46.90;;;;;;6383200;28;20050;-42
2023/04/13 16:11:00;;;;;;;0.63;0.20;;;22.70;46.80;;;;;;6385014;28;20047;-47
2023/04/13 16:14:06;;;;;;;1.13;0.20;;;22.60;46.60;;;;;;6367434;27;20048;-44
2023/04/13 16:17:08;;;;;;;0.90;0.35;;;22.60;46.70;;;;;;6353450;28;20122;-42
2023/04/13 16:20:18;;;;;;;1.63;0.40;;;22.10;46.30;;;;;;6351207;28;20449;-44
2023/04/13 16:23:23;;;;;;;1.20;0.30;;;22.20;46.30;;;;;;6352450;28;20055;-44
2023/04/13 16:26:24;;;;;;;0.55;0.30;;;22.30;46.60;;;;;;6352115;28;20067;-41
2023/04/13 16:29:27;;;;;;;0.10;0.10;;;22.20;46.60;;;;;;6350205;28;20117;-44
2023/04/13 16:32:28;;;;;;;0.60;0.40;;;22.30;46.60;;;;;;6350504;28;20084;-44
2023/04/13 16:35:30;;;;;;;;;;;22.20;46.70;;;;;;6351466;28;20046;-44
2023/04/13 16:38:37;;;;;;;0.20;0.10;;;22.30;47.00;;;;;;6298805;28;19920;-44
2023/04/13 16:41:39;;;;;;;0.20;0.17;;;22.10;46.60;;;;;;6350999;28;20487;-46
2023/04/13 16:44:41;;;;;;;0.28;0.28;;;22.60;46.60;;;;;;6350800;28;20039;-44
2023/04/13 16:47:45;;;;;;;0.38;0.20;;;22.30;46.80;;;;;;6351702;28;20043;-43
2023/04/13 16:50:47;;;;;;;0.10;0.10;;;22.20;46.60;;;;;;6351797;28;20044;-44
2023/04/13 16:53:51;;;;;;;0.98;0.10;;;22.30;46.60;;;;;;6353030;28;20429;-43
2023/04/13 16:56:53;;;;;;;0.20;0.20;;;22.20;46.60;;;;;;6351655;28;20071;-45
2023/04/13 16:59:56;;;;;;;0.20;0.20;;;22.10;46.60;;;;;;6351549;28;20059;-44
2023/04/13 17:02:58;;;;;;;0.20;0.20;;;22.70;46.80;;;;;;6352034;28;20093;-46
2023/04/13 17:06:01;;;;;;;0.30;0.30;;;22.60;46.80;;;;;;6352121;28;20100;-43
2023/04/13 17:09:02;;;;;;;0.20;0.20;;;22.30;46.30;;;;;;6350640;28;20043;-44
2023/04/13 17:12:04;;;;;;;0.32;0.30;;;22.20;46.50;;;;;;6354444;28;20526;-45
2023/04/13 17:15:07;;;;;;;1.35;0.28;;;22.50;45.60;;;;;;6353988;28;20039;-44
2023/04/13 17:18:08;;;;;;;0.10;0.10;;;22.40;46.30;;;;;;6353495;28;20096;-43
2023/04/13 17:21:13;;;;;;;2.17;0.22;;;22.40;46.40;;;;;;6353158;28;20055;-44
2023/04/13 17:24:15;;;;;;;0.32;0.30;;;22.30;46.40;;;;;;6352752;28;20499;-45
2023/04/13 17:27:17;;;;;;;0.68;0.20;;;22.40;46.30;;;;;;6351094;28;20067;-45
2023/04/13 17:30:19;;;;;;;0.15;0.13;;;22.30;46.30;;;;;;6352129;28;20103;-44
2023/04/13 17:33:23;;;;;;;0.35;0.20;;;22.40;46.00;;;;;;6334145;28;20073;-43
2023/04/13 17:36:26;;;;;;;0.30;0.30;;;22.40;46.20;;;;;;6351551;28;20040;-48
2023/04/13 17:39:30;;;;;;;0.60;0.60;;;22.40;46.00;;;;;;6352019;28;20479;-46
2023/04/13 17:42:31;;;;;;;0.28;0.22;;;22.60;46.10;;;;;;6351178;28;20052;-47
2023/04/13 17:45:36;;;;;;;0.30;0.13;;;22.40;45.80;;;;;;6358923;28;20067;-49
2023/04/13 17:48:43;;;;;;;0.20;0.20;;;22.40;46.10;;;;;;6358980;28;20040;-46
2023/04/13 17:51:47;;;;;;;1.90;0.38;;;22.50;45.70;;;;;;6355686;28;20048;-48
2023/04/13 17:54:48;;;;;;;0.40;0.17;;;22.30;45.70;;;;;;6338198;28;20036;-47
2023/04/13 17:57:49;;;;;;;;;;;22.80;45.80;;;;;;6359065;28;20048;-48
2023/04/13 18:00:51;;;;;;;0.17;0.10;;;23.10;46.50;;;;;;6359978;28;19927;-49
2023/04/13 18:03:52;;;;;;;0.20;0.13;;;22.40;46.00;;;;;;6355048;28;20047;-47
2023/04/13 18:06:55;;;;;;;0.47;0.30;;;22.40;46.00;;;;;;6353667;28;20043;-46
2023/04/13 18:09:57;;;;;;;0.38;0.20;;;22.50;43.60;;;;;;6351259;28;20486;-44
2023/04/13 18:12:59;;;;;;;0.47;0.30;;;22.30;45.90;;;;;;6353879;28;20070;-48
2023/04/13 18:16:02;;;;;;;0.35;0.20;;;22.30;45.70;;;;;;6349856;28;20039;-44
2023/04/13 18:19:06;;;;;;;0.20;0.20;;;22.40;45.80;;;;;;6316332;28;20059;-45
2023/04/13 18:22:08;;;;;;;0.25;0.20;;;22.30;45.40;;;;;;6352434;28;20043;-46
2023/04/13 18:25:12;;;;;;;0.20;0.20;;;22.30;45.80;;;;;;6354818;28;20046;-48
2023/04/13 18:28:14;;;;;;;0.30;0.20;;;22.30;45.80;;;;;;6356445;28;20039;-45
2023/04/13 18:31:17;;;;;;;0.30;0.30;;;22.40;45.70;;;;;;6336721;28;20174;-46
2023/04/13 18:34:19;;;;;;;0.20;0.20;;;22.30;45.60;;;;;;6334198;28;20071;-49
2023/04/13 18:37:22;;;;;;;0.30;0.20;;;22.30;45.70;;;;;;6352221;28;20222;-47
2023/04/13 18:40:24;;;;;;;0.30;0.28;;;22.70;45.50;;;;;;6351137;28;20039;-47
2023/04/13 18:43:25;;;;;;;;;;;22.10;45.70;;;;;;6351900;28;20081;-47
2023/04/13 18:46:29;;;;;;;0.15;0.10;;;22.40;46.00;;;;;;6348185;28;20007;-43
2023/04/13 18:49:30;;;;;;;0.20;0.20;;;22.40;46.00;;;;;;6346967;28;20209;-43
2023/04/13 18:52:32;;;;;;;;;;;22.20;45.90;;;;;;6347624;28;20043;-47
2023/04/13 18:55:37;;;;;;;0.40;0.30;;;22.10;46.10;;;;;;6347482;28;19919;-47
2023/04/13 18:58:38;;;;;;;0.30;0.20;;;22.20;45.80;;;;;;6346991;28;20040;-44
2023/04/13 19:01:39;;;;;;;;;;;22.20;45.90;;;;;;6347073;28;20070;-44
2023/04/13 19:04:41;;;;;;;0.50;0.20;;;22.20;46.20;;;;;;6347163;28;20009;-43
2023/04/13 19:07:57;;;;;;;0.20;0.20;;;22.20;46.10;;;;;;6347176;28;20131;-43
2023/04/13 19:10:58;;;;;;;0.20;0.20;;;22.20;46.00;;;;;;6329589;28;20067;-44
2023/04/13 19:14:03;;;;;;;0.40;0.30;;;22.10;46.20;;;;;;6347060;28;20051;-42
2023/04/13 19:17:04;;;;;;;;;;;22.20;46.10;;;;;;6347306;28;20050;-43
2023/04/13 19:20:09;;;;;;;0.17;0.17;;;22.20;46.30;;;;;;6346774;28;20355;-44
2023/04/13 19:23:13;;;;;;;0.35;0.28;;;22.10;45.80;;;;;;6347254;28;20056;-45
2023/04/13 19:26:14;;;;;;;0.22;0.20;;;22.20;46.10;;;;;;6346708;28;20043;-44
2023/04/13 19:29:16;;;;;;;;;;;22.60;46.40;;;;;;6346587;28;20075;-44
2023/04/13 19:32:18;;;;;;;0.20;0.20;;;22.20;46.40;;;;;;6346189;28;19919;-44
2023/04/13 19:35:23;;;;;;;;;;;22.20;46.30;;;;;;6346909;28;20047;-44
2023/04/13 19:38:25;;;;;;;0.13;0.10;;;22.90;46.90;;;;;;6346362;28;19954;-47
2023/04/13 19:41:26;;;;;;;0.50;0.30;;;22.00;46.10;;;;;;6346703;28;20062;-44
2023/04/13 19:44:29;;;;;;;0.85;0.30;;;22.10;46.40;;;;;;6346289;28;20070;-47
2023/04/13 19:47:32;;;;;;;0.50;0.30;;;22.00;46.20;;;;;;6345871;28;20127;-43
2023/04/13 19:50:33;;;;;;;0.60;0.30;;;22.20;64.30;;;;;;6349666;28;20040;-44
2023/04/13 19:53:37;;;;;;;0.28;0.20;;;22.00;46.50;;;;;;6350979;28;20478;-43
2023/04/13 19:56:39;;;;;;;0.70;0.40;;;22.10;46.40;;;;;;6350452;28;20036;-43
2023/04/13 19:59:41;;;;;;;0.30;0.30;;;22.00;46.50;;;;;;6350146;28;20067;-46
2023/04/13 20:02:46;;;;;;;0.40;0.30;;;22.00;46.50;;;;;;6350424;28;20044;-42
2023/04/13 20:05:48;;;;;;;0.68;0.40;;;22.10;46.30;;;;;;6350692;28;20418;-45
2023/04/13 20:08:50;;;;;;;;;;;22.00;46.60;;;;;;6350343;28;20036;-45
2023/04/13 20:11:51;;;;;;;0.40;0.30;;;22.30;64.80;;;;;;6350304;28;20401;-44
2023/04/13 20:14:53;;;;;;;0.30;0.20;;;22.40;46.90;;;;;;6350256;28;20040;-47
2023/04/13 20:17:56;;;;;;;0.40;0.30;;;21.90;46.60;;;;;;6349849;28;20425;-42
2023/04/13 20:20:59;;;;;;;0.40;0.30;;;22.30;47.00;;;;;;6350477;28;20483;-44
2023/04/13 20:24:01;;;;;;;0.30;0.30;;;22.70;48.00;;;;;;6350006;28;20048;-44
2023/04/13 20:27:04;;;;;;;0.25;0.20;;;21.90;46.60;;;;;;6350013;28;20092;-42
2023/04/13 20:30:06;;;;;;;0.60;0.45;;;21.90;46.40;;;;;;6350234;28;20429;-44
2023/04/13 20:33:08;;;;;;;0.50;0.30;;;21.90;46.60;;;;;;6349822;28;20039;-42
2023/04/13 20:36:09;;;;;;;0.85;0.40;;;22.30;47.90;;;;;;6297970;28;20043;-44
2023/04/13 20:39:12;;;;;;;0.30;0.20;;;22.20;47.10;;;;;;6349949;28;20077;-44
2023/04/13 20:42:17;;;;;;;0.30;0.30;;;21.70;46.30;;;;;;6349909;28;20044;-46
2023/04/13 20:45:22;;;;;;;0.73;0.45;;;21.90;46.90;;;;;;6298506;28;20039;-48
2023/04/13 20:48:24;;;;;;;0.55;0.40;;;21.80;46.80;;;;;;6349713;28;20064;-43
2023/04/13 20:51:30;;;;;;;0.80;0.50;;;21.80;46.80;;;;;;6349297;28;20547;-46
2023/04/13 20:54:35;;;;;;;1.33;0.60;;;21.70;46.90;;;;;;6349292;28;20072;-44
2023/04/13 20:57:40;;;;;;;0.90;0.50;;;22.20;44.00;;;;;;6349549;28;20036;-46
2023/04/13 21:00:44;;;;;;;0.55;0.43;;;21.80;47.00;;;;;;6348992;28;20101;-44
2023/04/13 21:03:45;;;;;;;0.85;0.50;;;21.80;47.20;;;;;;6348924;28;20491;-45
2023/04/13 21:06:49;;;;;;;1.75;0.40;;;21.80;47.20;;;;;;6348882;28;20491;-43
2023/04/13 21:09:54;;;;;;;0.70;0.50;;;21.90;47.30;;;;;;6349220;28;20036;-46
2023/04/13 21:12:55;;;;;;;0.88;0.50;;;22.20;44.20;;;;;;6349023;28;20093;-44
2023/04/13 21:15:57;;;;;;;1.25;0.57;;;21.70;47.50;;;;;;6348822;28;20495;-43
2023/04/13 21:18:58;;;;;;;;;;;21.90;47.50;;;;;;6349802;28;20043;-44
2023/04/13 21:21:59;;;;;;;0.90;0.50;;;21.70;47.80;;;;;;6348841;28;20018;-42
2023/04/13 21:25:02;;;;;;;0.95;0.47;;;21.60;47.60;;;;;;6348788;28;20048;-44
2023/04/13 21:28:06;;;;;;;0.75;0.40;;;21.60;47.50;;;;;;6348958;28;20048;-45
2023/04/13 21:31:12;;;;;;;0.80;0.50;;;21.70;47.60;;;;;;6348651;28;20036;-44
2023/04/13 21:34:13;;;;;;;0.75;0.40;;;21.80;44.50;;;;;;6348138;28;20573;-44
2023/04/13 21:37:16;;;;;;;1.10;0.75;;;21.90;47.80;;;;;;6348788;28;20548;-43
2023/04/13 21:40:18;;;;;;;;;;;21.40;47.70;;;;;;6348987;28;20043;-43
2023/04/13 21:43:19;;;;;;;0.60;0.60;;;21.50;48.00;;;;;;6348235;28;20398;-44
2023/04/13 21:46:21;;;;;;;0.77;0.68;;;21.50;47.70;;;;;;6348508;28;20044;-46
2023/04/13 21:49:23;;;;;;;;;;;21.50;47.90;;;;;;6349411;28;20044;-45
2023/04/13 21:52:24;;;;;;;0.47;0.30;;;21.60;48.20;;;;;;6348247;28;19930;-45
2023/04/13 21:55:26;;;;;;;;;;;21.70;48.00;;;;;;6348907;28;20131;-45
2023/04/13 21:58:35;;;;;;;;;;;22.00;48.50;;;;;;6348560;28;19958;-45
2023/04/13 22:01:37;;;;;;;1.15;0.57;;;21.50;48.20;;;;;;6347884;28;20442;-44
2023/04/13 22:04:38;;;;;;;0.60;0.30;;;21.60;48.20;;;;;;6348041;28;20069;-43
2023/04/13 22:07:40;;;;;;;0.93;0.60;;;21.30;48.10;;;;;;6347913;28;20043;-43
2023/04/13 22:10:45;;;;;;;0.70;0.47;;;21.40;48.20;;;;;;6347547;28;20053;-45
2023/04/13 22:13:46;;;;;;;0.82;0.50;;;21.40;48.10;;;;;;6347715;28;20051;-46
2023/04/13 22:16:48;;;;;;;0.85;0.55;;;21.30;48.10;;;;;;6347777;28;20043;-43
2023/04/13 22:19:50;;;;;;;0.52;0.30;;;21.40;48.10;;;;;;6347625;28;20074;-44
2023/04/13 22:22:51;;;;;;;;;;;21.30;48.30;;;;;;6348206;28;20044;-44
2023/04/13 22:25:57;;;;;;;0.73;0.45;;;21.30;48.60;;;;;;6347571;28;19920;-44
2023/04/13 22:28:59;;;;;;;0.68;0.50;;;21.40;48.20;;;;;;6313631;28;20495;-43
2023/04/13 22:32:01;;;;;;;0.43;0.38;;;21.50;48.10;;;;;;6347685;28;20429;-45
2023/04/13 22:35:02;;;;;;;0.30;0.30;;;21.60;48.60;;;;;;6348075;28;20043;-43
2023/04/13 22:38:04;;;;;;;0.35;0.30;;;21.20;48.30;;;;;;6347259;28;20051;-44
2023/04/13 22:41:09;;;;;;;0.60;0.60;;;21.20;48.40;;;;;;6347370;28;20540;-46
2023/04/13 22:44:10;;;;;;;0.63;0.40;;;21.20;48.60;;;;;;6347134;28;20062;-43
2023/04/13 22:47:12;;;;;;;0.60;0.47;;;21.20;48.40;;;;;;6347122;28;20063;-46
2023/04/13 22:50:13;;;;;;;0.40;0.30;;;21.00;48.30;;;;;;6347322;28;20040;-43
2023/04/13 22:53:15;;;;;;;;;;;21.20;48.60;;;;;;6347305;28;20044;-45
2023/04/13 22:56:17;;;;;;;0.30;0.30;;;21.00;48.90;;;;;;6346907;28;19919;-45
2023/04/13 22:59:18;;;;;;;0.30;0.20;;;21.00;48.70;;;;;;6346752;28;20036;-43
2023/04/13 23:02:20;;;;;;;;;;;21.10;48.20;;;;;;6294671;28;20078;-46
2023/04/13 23:05:21;;;;;;;0.40;0.30;;;21.60;49.30;;;;;;6346716;28;20030;-42
2023/04/13 23:08:23;;;;;;;0.70;0.30;;;21.00;48.80;;;;;;6346689;28;20078;-45
2023/04/13 23:11:25;;;;;;;;;;;20.90;48.70;;;;;;6347356;28;20088;-44
2023/04/13 23:14:27;;;;;;;0.43;0.28;;;21.00;49.10;;;;;;6346573;28;20386;-46
2023/04/13 23:17:28;;;;;;;0.50;0.32;;;21.10;48.90;;;;;;6346409;28;20040;-45
2023/04/13 23:20:30;;;;;;;0.40;0.30;;;21.10;48.90;;;;;;6346486;28;20047;-45
2023/04/13 23:23:32;;;;;;;0.45;0.30;;;21.00;48.70;;;;;;6347323;28;20043;-46
2023/04/13 23:26:33;;;;;;;0.50;0.30;;;20.80;48.80;;;;;;6349171;28;20071;-43
2023/04/13 23:29:35;;;;;;;0.38;0.32;;;20.90;48.80;;;;;;6350992;28;20039;-43
2023/04/13 23:32:37;;;;;;;0.65;0.40;;;20.90;48.40;;;;;;6351158;28;20130;-43
2023/04/13 23:35:39;;;;;;;0.82;0.40;;;21.30;49.00;;;;;;6351217;28;20036;-44